createdAt,value
2022-10-23T00:01:47.580Z,9.82
2022-10-23T00:04:21.849Z,9.91
2022-10-23T00:06:49.977Z,9.97
2022-10-23T00:09:21.919Z,10.02
2022-10-23T00:11:51.551Z,10.10
2022-10-23T00:14:23.093Z,10.16
2022-10-23T00:16:51.460Z,10.15
2022-10-23T00:19:19.302Z,10.11
2022-10-23T00:21:47.209Z,10.03
2022-10-23T00:24:15.065Z,10.02
2022-10-23T00:26:43.012Z,10.03
2022-10-23T00:29:11.338Z,9.92
2022-10-23T00:31:39.566Z,9.84
2022-10-23T00:34:08.634Z,9.79
2022-10-23T00:36:38.060Z,9.72
2022-10-23T00:39:06.314Z,9.71
2022-10-23T00:41:35.070Z,9.71
2022-10-23T00:44:05.250Z,9.71
2022-10-23T00:46:33.708Z,9.68
2022-10-23T00:49:02.680Z,9.72
2022-10-23T00:51:39.199Z,9.73
2022-10-23T00:54:25.093Z,9.75
2022-10-23T00:56:56.262Z,9.81
2022-10-23T00:59:24.611Z,9.86
2022-10-23T01:01:52.723Z,9.90
2022-10-23T01:04:22.549Z,10.00
2022-10-23T01:07:02.713Z,10.10
2022-10-23T01:10:07.996Z,10.13
2022-10-23T01:12:47.227Z,10.18
2022-10-23T01:15:21.416Z,10.27
2022-10-23T01:18:00.115Z,10.36
2022-10-23T01:20:45.456Z,10.46
2022-10-23T01:23:29.235Z,10.45
2022-10-23T01:26:24.342Z,10.39
2022-10-23T01:28:57.955Z,10.32
2022-10-23T01:31:37.503Z,10.31
2022-10-23T01:34:22.457Z,10.31
2022-10-23T01:36:53.410Z,10.27
2022-10-23T01:39:27.831Z,10.21
2022-10-23T01:42:22.589Z,10.13
2022-10-23T01:44:58.652Z,10.05
2022-10-23T01:47:31.190Z,9.95
2022-10-23T01:50:06.373Z,9.86
2022-10-23T01:52:34.987Z,9.80
2022-10-23T01:55:07.532Z,9.76
2022-10-23T01:57:39.587Z,9.69
2022-10-23T02:00:12.570Z,9.63
2022-10-23T02:02:54.764Z,9.59
2022-10-23T02:05:29.609Z,9.55
2022-10-23T02:07:59.323Z,9.55
2022-10-23T02:10:43.494Z,9.54
2022-10-23T02:13:25.103Z,9.53
2022-10-23T02:16:24.313Z,9.51
2022-10-23T02:18:52.107Z,9.51
2022-10-23T02:21:41.643Z,9.39
2022-10-23T02:24:13.789Z,9.32
2022-10-23T02:26:57.358Z,9.27
2022-10-23T02:29:34.730Z,9.26
2022-10-23T02:32:03.543Z,9.19
2022-10-23T02:34:31.885Z,9.15
2022-10-23T02:36:59.811Z,9.12
2022-10-23T02:39:28.959Z,9.12
2022-10-23T02:42:03.081Z,9.25
2022-10-23T02:44:42.978Z,9.45
2022-10-23T02:47:39.316Z,9.62
2022-10-23T02:50:34.900Z,9.64
2022-10-23T02:53:28.093Z,9.64
2022-10-23T02:56:28.169Z,9.67
2022-10-23T02:59:21.670Z,9.88
2022-10-23T03:02:19.659Z,9.98
2022-10-23T03:04:48.859Z,10.00
2022-10-23T03:07:19.645Z,10.04
2022-10-23T03:09:47.912Z,10.16
2022-10-23T03:12:15.890Z,10.35
2022-10-23T03:14:43.741Z,10.51
2022-10-23T03:17:11.586Z,10.65
2022-10-23T03:19:39.452Z,10.75
2022-10-23T03:22:07.313Z,10.88
2022-10-23T03:24:35.263Z,10.99
2022-10-23T03:27:03.269Z,11.14
2022-10-23T03:29:32.851Z,11.31
2022-10-23T03:32:00.672Z,11.41
2022-10-23T03:34:28.619Z,11.50
2022-10-23T03:36:56.445Z,11.57
2022-10-23T03:39:24.318Z,11.69
2022-10-23T03:41:52.239Z,11.79
2022-10-23T03:44:22.549Z,11.89
2022-10-23T03:46:50.577Z,11.99
2022-10-23T03:49:18.519Z,12.19
2022-10-23T03:51:52.042Z,12.43
2022-10-23T03:54:23.826Z,12.52
2022-10-23T03:56:56.521Z,12.57
2022-10-23T03:59:25.747Z,12.56
2022-10-23T04:01:54.359Z,12.61
2022-10-23T04:04:25.252Z,12.64
2022-10-23T04:06:53.188Z,12.66
2022-10-23T04:09:21.943Z,12.68
2022-10-23T04:11:49.849Z,12.65
2022-10-23T04:14:18.039Z,12.62
2022-10-23T04:16:45.952Z,12.59
2022-10-23T04:19:14.093Z,12.54
2022-10-23T04:21:42.304Z,12.40
2022-10-23T04:24:10.416Z,12.27
2022-10-23T04:26:38.586Z,12.12
2022-10-23T04:29:06.569Z,11.99
2022-10-23T04:31:34.697Z,11.91
2022-10-23T04:34:02.714Z,11.83
2022-10-23T04:36:32.297Z,11.79
2022-10-23T04:39:08.033Z,11.74
2022-10-23T04:41:39.006Z,11.73
2022-10-23T04:44:08.184Z,11.73
2022-10-23T04:46:39.392Z,11.74
2022-10-23T04:49:07.719Z,11.81
2022-10-23T04:52:10.960Z,11.84
2022-10-23T04:54:54.285Z,11.89
2022-10-23T04:57:43.634Z,12.00
2022-10-23T05:00:15.715Z,12.06
2022-10-23T05:02:48.851Z,12.05
2022-10-23T05:05:18.292Z,12.04
2022-10-23T05:08:15.633Z,12.07
2022-10-23T05:11:06.198Z,12.06
2022-10-23T05:13:39.590Z,12.04
2022-10-23T05:16:07.389Z,12.01
2022-10-23T05:18:45.652Z,11.97
2022-10-23T05:21:28.256Z,11.98
2022-10-23T05:23:57.402Z,12.03
2022-10-23T05:26:26.235Z,12.07
2022-10-23T05:28:54.413Z,12.11
2022-10-23T05:31:24.628Z,12.16
2022-10-23T05:33:55.129Z,12.21
2022-10-23T05:36:24.891Z,12.23
2022-10-23T05:38:58.023Z,12.27
2022-10-23T05:41:26.782Z,12.31
2022-10-23T05:43:58.534Z,12.42
2022-10-23T05:46:44.834Z,12.48
2022-10-23T05:49:41.659Z,12.56
2022-10-23T05:52:28.674Z,12.62
2022-10-23T05:55:16.459Z,12.68
2022-10-23T05:57:49.990Z,12.75
2022-10-23T06:00:23.327Z,12.83
2022-10-23T06:03:00.507Z,12.91
2022-10-23T06:08:20.027Z,13.10
2022-10-23T06:10:49.919Z,13.23
2022-10-23T06:13:17.805Z,13.36
2022-10-23T06:15:45.744Z,13.51
2022-10-23T06:18:20.636Z,13.66
2022-10-23T06:20:54.349Z,13.81
2022-10-23T06:23:25.929Z,13.97
2022-10-23T06:26:05.139Z,14.14
2022-10-23T06:28:40.129Z,14.27
2022-10-23T06:31:09.914Z,14.31
2022-10-23T06:33:37.758Z,14.39
2022-10-23T06:36:10.567Z,14.52
2022-10-23T06:38:40.828Z,14.62
2022-10-23T06:41:35.672Z,14.76
2022-10-23T06:44:04.100Z,14.91
2022-10-23T06:46:47.103Z,15.07
2022-10-23T06:49:33.336Z,15.24
2022-10-23T06:52:02.299Z,15.34
2022-10-23T06:54:30.167Z,15.39
2022-10-23T06:57:21.113Z,15.46
2022-10-23T06:59:50.405Z,15.53
2022-10-23T07:02:19.036Z,15.60
2022-10-23T07:04:48.073Z,15.69
2022-10-23T07:07:18.818Z,15.77
2022-10-23T07:09:48.767Z,15.88
2022-10-23T07:12:39.503Z,16.04
2022-10-23T07:15:28.362Z,16.14
2022-10-23T07:17:57.034Z,16.27
2022-10-23T07:20:25.569Z,16.39
2022-10-23T07:22:57.162Z,16.44
2022-10-23T07:25:28.897Z,16.53
2022-10-23T07:27:56.722Z,16.62
2022-10-23T07:30:25.506Z,16.71
2022-10-23T07:32:55.473Z,16.82
2022-10-23T07:35:41.592Z,16.91
2022-10-23T07:38:15.095Z,17.01
2022-10-23T07:40:46.179Z,17.09
2022-10-23T07:43:18.608Z,17.14
2022-10-23T07:45:48.794Z,17.22
2022-10-23T07:48:23.895Z,17.29
2022-10-23T07:51:08.151Z,17.40
2022-10-23T07:53:38.884Z,17.47
2022-10-23T07:56:20.987Z,17.54
2022-10-23T07:59:13.009Z,17.62
2022-10-23T08:01:43.039Z,17.66
2022-10-23T08:04:11.538Z,17.73
2022-10-23T08:06:45.942Z,17.83
2022-10-23T08:09:13.889Z,17.95
2022-10-23T08:11:42.403Z,18.08
2022-10-23T08:14:10.904Z,18.19
2022-10-23T08:16:39.907Z,18.26
2022-10-23T08:19:19.799Z,18.34
2022-10-23T08:21:48.815Z,18.40
2022-10-23T08:24:18.081Z,18.44
2022-10-23T08:26:49.684Z,18.48
2022-10-23T08:29:18.928Z,18.53
2022-10-23T08:31:47.702Z,18.59
2022-10-23T08:34:22.459Z,18.67
2022-10-23T08:36:51.133Z,18.70
2022-10-23T08:39:19.155Z,18.79
2022-10-23T08:42:04.721Z,18.96
2022-10-23T08:44:40.439Z,19.00
2022-10-23T08:47:13.773Z,19.06
2022-10-23T08:50:06.402Z,19.18
2022-10-23T08:53:01.611Z,19.27
2022-10-23T08:55:40.649Z,19.29
2022-10-23T08:58:08.447Z,19.30
2022-10-23T09:00:36.656Z,19.33
2022-10-23T09:03:05.946Z,19.42
2022-10-23T09:06:03.589Z,19.53
2022-10-23T09:09:13.725Z,19.50
2022-10-23T09:11:57.631Z,19.55
2022-10-23T09:15:03.109Z,19.71
2022-10-23T09:17:35.138Z,19.74
2022-10-23T09:20:18.157Z,19.82
2022-10-23T09:22:47.815Z,19.91
2022-10-23T09:25:22.791Z,19.97
2022-10-23T09:27:56.679Z,19.99
2022-10-23T09:30:32.229Z,20.01
2022-10-23T09:33:01.652Z,19.98
2022-10-23T09:35:30.896Z,20.04
2022-10-23T09:37:58.871Z,20.09
2022-10-23T09:40:43.610Z,20.21
2022-10-23T09:43:17.629Z,20.21
2022-10-23T09:45:57.264Z,20.30
2022-10-23T09:48:26.500Z,20.38
2022-10-23T09:50:57.169Z,20.37
2022-10-23T09:53:33.844Z,20.38
2022-10-23T09:56:12.043Z,20.51
2022-10-23T09:58:52.413Z,20.59
2022-10-23T10:01:26.136Z,20.63
2022-10-23T10:03:57.345Z,20.69
2022-10-23T10:06:32.751Z,20.71
2022-10-23T10:09:07.844Z,20.75
2022-10-23T10:11:58.934Z,20.79
2022-10-23T10:14:48.059Z,20.83
2022-10-23T10:17:47.296Z,20.87
2022-10-23T10:20:24.223Z,20.86
2022-10-23T10:23:13.252Z,20.88
2022-10-23T10:26:10.204Z,20.97
2022-10-23T10:28:40.681Z,21.09
2022-10-23T10:31:26.359Z,21.17
2022-10-23T10:34:40.682Z,21.16
2022-10-23T10:37:33.018Z,21.28
2022-10-23T10:40:14.060Z,21.24
2022-10-23T10:42:42.878Z,21.23
2022-10-23T10:45:39.977Z,21.37
2022-10-23T10:48:44.413Z,21.49
2022-10-23T10:51:47.458Z,21.60
2022-10-23T10:54:36.544Z,21.66
2022-10-23T10:57:14.022Z,21.67
2022-10-23T10:59:46.791Z,21.77
2022-10-23T11:02:28.706Z,21.92
2022-10-23T11:05:00.750Z,22.09
2022-10-23T11:07:37.330Z,22.13
2022-10-23T11:10:18.856Z,22.31
2022-10-23T11:12:48.184Z,22.43
2022-10-23T11:15:23.538Z,22.44
2022-10-23T11:18:06.032Z,22.69
2022-10-23T11:20:45.178Z,22.95
2022-10-23T11:23:37.362Z,23.20
2022-10-23T11:26:07.967Z,23.23
2022-10-23T11:29:13.540Z,23.37
2022-10-23T11:32:06.418Z,23.60
2022-10-23T11:34:51.020Z,23.87
2022-10-23T11:37:20.813Z,23.85
2022-10-23T11:40:21.419Z,24.01
2022-10-23T11:42:50.741Z,24.00
2022-10-23T11:45:49.034Z,23.90
2022-10-23T11:48:36.438Z,24.15
2022-10-23T11:51:05.558Z,24.27
2022-10-23T11:53:33.416Z,24.15
2022-10-23T11:56:01.157Z,24.41
2022-10-23T11:58:45.803Z,24.84
2022-10-23T12:01:24.480Z,24.83
2022-10-23T12:04:03.478Z,24.79
2022-10-23T12:06:40.463Z,24.89
2022-10-23T12:09:40.988Z,25.14
2022-10-23T12:12:08.798Z,24.71
2022-10-23T12:14:42.536Z,24.92
2022-10-23T12:17:22.599Z,25.04
2022-10-23T12:19:51.169Z,24.93
2022-10-23T12:22:21.019Z,25.10
2022-10-23T12:25:04.186Z,25.36
2022-10-23T12:27:42.134Z,25.67
2022-10-23T12:30:39.991Z,25.61
2022-10-23T12:33:16.631Z,25.81
2022-10-23T12:36:05.537Z,25.75
2022-10-23T12:38:35.691Z,25.76
2022-10-23T12:41:17.154Z,26.06
2022-10-23T12:43:54.773Z,25.88
2022-10-23T12:46:35.606Z,25.66
2022-10-23T12:49:17.698Z,25.85
2022-10-23T12:51:46.192Z,26.24
2022-10-23T12:54:19.889Z,26.41
2022-10-23T12:56:48.294Z,26.10
2022-10-23T12:59:20.347Z,26.41
2022-10-23T13:01:52.644Z,26.94
2022-10-23T13:04:29.305Z,26.87
2022-10-23T13:06:59.890Z,26.28
2022-10-23T13:09:32.074Z,26.18
2022-10-23T13:12:24.576Z,26.65
2022-10-23T13:15:07.685Z,26.93
2022-10-23T13:17:37.975Z,26.85
2022-10-23T13:20:27.124Z,26.61
2022-10-23T13:23:16.896Z,26.48
2022-10-23T13:25:56.430Z,26.24
2022-10-23T13:28:26.995Z,26.45
2022-10-23T13:31:20.880Z,26.58
2022-10-23T13:34:05.714Z,26.59
2022-10-23T13:36:37.551Z,26.46
2022-10-23T13:39:11.920Z,26.61
2022-10-23T13:41:45.208Z,26.72
2022-10-23T13:44:18.962Z,26.70
2022-10-23T13:46:48.574Z,26.45
2022-10-23T13:49:16.842Z,26.32
2022-10-23T13:51:51.940Z,26.45
2022-10-23T13:54:25.786Z,26.63
2022-10-23T13:56:55.452Z,26.79
2022-10-23T13:59:24.078Z,26.78
2022-10-23T14:01:52.936Z,26.16
2022-10-23T14:04:21.205Z,25.60
2022-10-23T14:06:49.326Z,25.55
2022-10-23T14:09:18.698Z,25.39
2022-10-23T14:11:46.687Z,25.04
2022-10-23T14:14:14.571Z,24.68
2022-10-23T14:16:42.416Z,24.34
2022-10-23T14:19:11.205Z,24.10
2022-10-23T14:21:39.176Z,23.90
2022-10-23T14:24:07.357Z,23.76
2022-10-23T14:26:35.313Z,23.50
2022-10-23T14:29:07.622Z,23.34
2022-10-23T14:31:39.382Z,23.20
2022-10-23T14:34:07.215Z,23.04
2022-10-23T14:36:49.286Z,22.94
2022-10-23T14:39:18.813Z,22.76
2022-10-23T14:41:47.195Z,22.65
2022-10-23T14:44:15.011Z,22.52
2022-10-23T14:46:43.023Z,22.40
2022-10-23T14:49:11.000Z,22.25
2022-10-23T14:51:38.770Z,22.11
2022-10-23T14:54:07.929Z,21.96
2022-10-23T14:56:38.387Z,21.81
2022-10-23T14:59:08.050Z,21.67
2022-10-23T15:01:45.273Z,21.55
2022-10-23T15:04:15.770Z,21.39
2022-10-23T15:06:43.682Z,21.24
2022-10-23T15:09:11.470Z,21.05
2022-10-23T15:11:40.122Z,20.80
2022-10-23T15:14:08.563Z,20.62
2022-10-23T15:16:41.727Z,20.51
2022-10-23T15:19:18.546Z,20.41
2022-10-23T15:21:48.036Z,20.30
2022-10-23T15:24:17.466Z,20.18
2022-10-23T15:26:45.552Z,20.06
2022-10-23T15:29:14.969Z,19.95
2022-10-23T15:31:47.345Z,19.80
2022-10-23T15:34:19.072Z,19.65
2022-10-23T15:36:48.381Z,19.47
2022-10-23T15:39:19.521Z,19.35
2022-10-23T15:41:50.063Z,19.16
2022-10-23T15:44:19.739Z,19.04
2022-10-23T15:46:48.652Z,19.02
2022-10-23T15:49:16.815Z,19.00
2022-10-23T15:51:45.285Z,18.94
2022-10-23T15:54:19.202Z,18.90
2022-10-23T15:56:50.141Z,18.85
2022-10-23T15:59:20.883Z,18.84
2022-10-23T16:01:49.317Z,18.78
2022-10-23T16:04:18.553Z,18.69
2022-10-23T16:06:46.713Z,18.56
2022-10-23T16:09:15.600Z,18.39
2022-10-23T16:11:43.685Z,18.26
2022-10-23T16:14:15.282Z,18.16
2022-10-23T16:16:43.830Z,18.06
2022-10-23T16:19:12.512Z,17.97
2022-10-23T16:21:41.505Z,17.89
2022-10-23T16:24:10.282Z,17.78
2022-10-23T16:26:39.896Z,17.69
2022-10-23T16:29:09.753Z,17.57
2022-10-23T16:31:37.981Z,17.45
2022-10-23T16:34:06.300Z,17.34
2022-10-23T16:36:34.848Z,17.24
2022-10-23T16:39:25.343Z,17.14
2022-10-23T16:42:26.007Z,17.08
2022-10-23T16:45:07.777Z,17.06
2022-10-23T16:47:36.117Z,17.03
2022-10-23T16:50:04.342Z,16.97
2022-10-23T16:52:33.412Z,16.87
2022-10-23T16:55:01.378Z,16.72
2022-10-23T16:57:29.452Z,16.59
2022-10-23T16:59:57.475Z,16.44
2022-10-23T17:02:25.562Z,16.27
2022-10-23T17:04:53.678Z,16.11
2022-10-23T17:07:24.171Z,15.95
2022-10-23T17:09:52.365Z,15.78
2022-10-23T17:12:20.333Z,15.68
2022-10-23T17:14:48.245Z,15.65
2022-10-23T17:17:16.268Z,15.59
2022-10-23T17:19:45.937Z,15.52
2022-10-23T17:22:15.477Z,15.45
2022-10-23T17:24:46.233Z,15.35
2022-10-23T17:27:17.136Z,15.21
2022-10-23T17:29:45.018Z,15.07
2022-10-23T17:32:13.266Z,14.96
2022-10-23T17:34:41.477Z,14.83
2022-10-23T17:37:10.368Z,14.70
2022-10-23T17:39:38.334Z,14.56
2022-10-23T17:42:06.705Z,14.46
2022-10-23T17:44:34.673Z,14.37
2022-10-23T17:47:02.424Z,14.29
2022-10-23T17:49:30.396Z,14.23
2022-10-23T17:51:58.385Z,14.15
2022-10-23T17:54:27.375Z,14.07
2022-10-23T17:56:56.369Z,13.97
2022-10-23T17:59:24.287Z,13.83
2022-10-23T18:01:52.645Z,13.68
2022-10-23T18:04:21.361Z,13.55
2022-10-23T18:06:52.939Z,13.42
2022-10-23T18:09:22.641Z,13.34
2022-10-23T18:11:51.860Z,13.30
2022-10-23T18:14:21.595Z,13.26
2022-10-23T18:16:51.173Z,13.18
2022-10-23T18:19:19.547Z,13.12
2022-10-23T18:21:48.237Z,13.07
2022-10-23T18:24:17.535Z,13.03
2022-10-23T18:26:47.932Z,13.02
2022-10-23T18:29:17.535Z,12.99
2022-10-23T18:31:48.247Z,12.95
2022-10-23T18:34:24.873Z,12.86
2022-10-23T18:36:54.787Z,12.77
2022-10-23T18:39:25.574Z,12.67
2022-10-23T18:41:56.625Z,12.62
2022-10-23T18:44:29.194Z,12.55
2022-10-23T18:46:59.184Z,12.49
2022-10-23T18:49:28.087Z,12.45
2022-10-23T18:51:58.237Z,12.40
2022-10-23T18:54:26.232Z,12.33
2022-10-23T18:56:54.215Z,12.28
2022-10-23T18:59:22.071Z,12.22
2022-10-23T19:01:50.655Z,12.16
2022-10-23T19:04:19.108Z,12.09
2022-10-23T19:06:48.935Z,12.01
2022-10-23T19:09:17.577Z,11.94
2022-10-23T19:11:45.663Z,11.87
2022-10-23T19:14:13.770Z,11.81
2022-10-23T19:16:51.555Z,11.83
2022-10-23T19:19:23.222Z,11.85
2022-10-23T19:21:52.318Z,11.83
2022-10-23T19:24:33.719Z,11.81
2022-10-23T19:27:02.622Z,11.76
2022-10-23T19:29:31.441Z,11.72
2022-10-23T19:32:00.365Z,11.70
2022-10-23T19:34:28.443Z,11.71
2022-10-23T19:36:56.672Z,11.68
2022-10-23T19:39:25.995Z,11.67
2022-10-23T19:41:54.326Z,11.66
2022-10-23T19:44:22.256Z,11.66
2022-10-23T19:46:50.776Z,11.64
2022-10-23T19:49:18.794Z,11.63
2022-10-23T19:51:51.266Z,11.59
2022-10-23T19:54:21.189Z,11.53
2022-10-23T19:56:49.842Z,11.49
2022-10-23T19:59:18.490Z,11.38
2022-10-23T20:01:48.953Z,11.47
2022-10-23T20:04:18.745Z,11.56
2022-10-23T20:06:47.363Z,11.59
2022-10-23T20:09:15.256Z,11.65
2022-10-23T20:11:45.310Z,11.71
2022-10-23T20:14:13.674Z,11.62
2022-10-23T20:16:44.924Z,11.55
2022-10-23T20:21:47.596Z,11.52
2022-10-23T20:24:17.849Z,11.52
2022-10-23T20:26:49.223Z,11.48
2022-10-23T20:29:17.180Z,11.46
2022-10-23T20:31:45.089Z,11.46
2022-10-23T20:34:13.311Z,11.42
2022-10-23T20:36:46.433Z,11.35
2022-10-23T20:39:19.064Z,11.30
2022-10-23T20:41:47.959Z,11.25
2022-10-23T20:46:50.920Z,11.12
2022-10-23T20:49:19.161Z,11.03
2022-10-23T20:51:55.649Z,10.91
2022-10-23T20:54:26.881Z,10.82
2022-10-23T20:56:57.018Z,10.70
2022-10-23T20:59:25.712Z,10.64
2022-10-23T21:01:55.514Z,10.59
2022-10-23T21:04:27.803Z,10.56
2022-10-23T21:07:09.398Z,10.53
2022-10-23T21:09:39.232Z,10.48
2022-10-23T21:12:08.112Z,10.44
2022-10-23T21:14:36.462Z,10.41
2022-10-23T21:17:04.682Z,10.33
2022-10-23T21:19:32.553Z,10.31
2022-10-23T21:22:00.579Z,10.29
2022-10-23T21:24:28.343Z,10.28
2022-10-23T21:26:56.597Z,10.24
2022-10-23T21:29:24.620Z,10.20
2022-10-23T21:31:57.852Z,10.14
2022-10-23T21:34:26.949Z,10.12
2022-10-23T21:39:44.240Z,10.17
2022-10-23T21:42:13.661Z,10.15
2022-10-23T21:44:41.708Z,10.11
2022-10-23T21:47:09.729Z,10.10
2022-10-23T21:49:38.079Z,10.01
2022-10-23T21:52:06.124Z,9.88
2022-10-23T21:54:34.070Z,9.85
2022-10-23T21:57:03.510Z,9.83
2022-10-23T21:59:35.451Z,9.73
2022-10-23T22:02:04.143Z,9.65
2022-10-23T22:04:32.300Z,9.61
2022-10-23T22:07:00.464Z,9.56
2022-10-23T22:09:28.718Z,9.54
2022-10-23T22:11:56.887Z,9.49
2022-10-23T22:14:24.801Z,9.44
2022-10-23T22:16:53.303Z,9.44
2022-10-23T22:19:22.491Z,9.41
2022-10-23T22:21:51.132Z,9.41
2022-10-23T22:24:19.194Z,9.46
2022-10-23T22:26:53.402Z,9.47
2022-10-23T22:29:23.952Z,9.49
2022-10-23T22:31:52.237Z,9.50
2022-10-23T22:34:48.248Z,9.55
2022-10-23T22:37:14.318Z,9.56
2022-10-23T22:39:42.908Z,9.55
2022-10-23T22:42:11.050Z,9.52
2022-10-23T22:44:39.040Z,9.51
2022-10-23T22:47:07.300Z,9.49
2022-10-23T22:49:35.352Z,9.44
2022-10-23T22:52:03.283Z,9.42
2022-10-23T22:54:31.606Z,9.36
2022-10-23T22:56:59.622Z,9.35
2022-10-23T22:59:27.507Z,9.42
2022-10-23T23:01:55.474Z,9.54
2022-10-23T23:04:37.401Z,9.60
2022-10-23T23:07:12.357Z,9.60
2022-10-23T23:09:42.143Z,9.57
2022-10-23T23:12:12.468Z,9.55
2022-10-23T23:14:41.170Z,9.58
2022-10-23T23:17:10.201Z,9.59
2022-10-23T23:19:38.432Z,9.62
2022-10-23T23:22:06.851Z,9.63
2022-10-23T23:24:34.801Z,9.66
2022-10-23T23:27:02.599Z,9.70
2022-10-23T23:29:31.086Z,9.74
2022-10-23T23:31:58.943Z,9.75
2022-10-23T23:34:26.855Z,9.74
2022-10-23T23:36:54.940Z,9.70
2022-10-23T23:39:22.779Z,9.70
2022-10-23T23:41:50.593Z,9.63
2022-10-23T23:44:18.414Z,9.58
2022-10-23T23:46:46.261Z,9.54
2022-10-23T23:49:14.148Z,9.51
2022-10-23T23:51:42.045Z,9.47
2022-10-23T23:54:10.063Z,9.41
2022-10-23T23:56:38.364Z,9.37
2022-10-23T23:59:06.311Z,9.29
